Time;durP1;ratioP1;P1;durP2;ratioP2;P2;SDS_P1;SDS_P2;PMS_P1;PMS_P2;Temp;Humidity;BMP_temperature;BMP_pressure;BME280_temperature;BME280_humidity;BME280_pressure;Samples;Min_cycle;Max_cycle;Signal;HPM_P1;HPM_P2
2022/10/22 00:01:33;;;;;;;53.83;19.15;;;12.50;99.90;;;;;;5039175;28;20488;-66
2022/10/22 00:03:59;;;;;;;47.20;19.38;;;12.40;99.90;;;;;;5045553;28;20044;-66
2022/10/22 00:06:25;;;;;;;51.63;18.30;;;12.30;99.90;;;;;;5044652;28;20365;-66
2022/10/22 00:08:51;;;;;;;51.42;18.55;;;12.30;99.90;;;;;;5049074;28;20048;-66
2022/10/22 00:11:18;;;;;;;44.45;18.33;;;12.30;99.90;;;;;;5050069;28;20045;-66
2022/10/22 00:13:44;;;;;;;53.50;20.05;;;12.30;99.90;;;;;;5050335;28;20029;-66
2022/10/22 00:16:10;;;;;;;51.10;19.27;;;12.30;99.90;;;;;;5046335;28;20128;-66
2022/10/22 00:18:36;;;;;;;51.60;19.30;;;12.30;99.90;;;;;;5052629;28;20136;-66
2022/10/22 00:21:02;;;;;;;51.70;18.45;;;12.20;99.90;;;;;;5047864;28;20041;-66
2022/10/22 00:23:28;;;;;;;58.28;19.70;;;12.20;99.90;;;;;;5049779;28;20047;-66
2022/10/22 00:25:54;;;;;;;52.17;19.20;;;12.10;99.90;;;;;;5047923;28;20034;-66
2022/10/22 00:28:20;;;;;;;43.63;18.75;;;12.10;99.90;;;;;;5043271;28;20043;-66
2022/10/22 00:30:45;;;;;;;51.28;19.10;;;12.10;99.90;;;;;;5042532;28;20041;-66
2022/10/22 00:33:11;;;;;;;51.47;18.77;;;12.10;99.90;;;;;;5051767;28;20075;-66
2022/10/22 00:35:37;;;;;;;53.75;17.98;;;12.00;99.90;;;;;;5050962;28;20132;-66
2022/10/22 00:38:03;;;;;;;46.00;18.08;;;12.00;99.90;;;;;;5040154;28;20052;-66
2022/10/22 00:40:28;;;;;;;55.88;18.80;;;12.00;99.90;;;;;;5043568;28;20048;-66
2022/10/22 00:42:54;;;;;;;46.63;18.85;;;12.00;99.90;;;;;;5045239;28;20067;-66
2022/10/22 00:45:23;;;;;;;45.97;18.75;;;11.90;99.90;;;;;;5042637;28;20037;-66
2022/10/22 00:48:13;;;;;;;46.42;19.27;;;11.90;99.90;;;;;;5034813;28;20045;-66
2022/10/22 00:50:55;;;;;;;55.35;20.02;;;11.90;99.90;;;;;;5044719;28;20048;-66
2022/10/22 00:53:29;;;;;;;55.83;20.42;;;11.90;99.90;;;;;;5047709;28;20080;-66
2022/10/22 00:55:54;;;;;;;50.70;18.80;;;11.90;99.90;;;;;;5035724;28;20041;-66
2022/10/22 00:58:24;;;;;;;57.83;19.77;;;11.80;99.90;;;;;;5045187;28;20089;-66
2022/10/22 01:00:50;;;;;;;51.63;19.80;;;11.90;99.90;;;;;;5040794;28;20084;-66
2022/10/22 01:03:16;;;;;;;59.28;21.02;;;11.90;99.90;;;;;;5046971;28;21544;-66
2022/10/22 01:05:48;;;;;;;51.72;20.10;;;11.90;99.90;;;;;;5042716;28;20128;-66
2022/10/22 01:08:32;;;;;;;63.33;21.55;;;11.90;99.90;;;;;;5049680;28;20055;-66
2022/10/22 01:11:22;;;;;;;62.63;21.63;;;11.90;99.90;;;;;;5047811;28;20562;-66
2022/10/22 01:13:59;;;;;;;57.78;20.98;;;11.80;99.90;;;;;;5047830;28;20391;-66
2022/10/22 01:16:33;;;;;;;50.90;19.60;;;11.80;99.90;;;;;;5050099;28;20045;-67
2022/10/22 01:19:20;;;;;;;57.35;20.55;;;11.80;99.90;;;;;;5037233;28;20044;-67
2022/10/22 01:21:54;;;;;;;53.38;20.65;;;11.70;99.90;;;;;;5076492;28;20044;-67
2022/10/22 01:24:41;;;;;;;61.00;20.67;;;11.70;99.90;;;;;;5051396;28;20048;-67
2022/10/22 01:27:07;;;;;;;59.22;20.88;;;11.70;99.90;;;;;;5046088;28;20049;-67
2022/10/22 01:29:37;;;;;;;52.88;20.33;;;11.70;99.90;;;;;;5047958;28;20188;-67
2022/10/22 01:32:11;;;;;;;54.40;21.60;;;11.70;99.90;;;;;;5047616;28;20041;-67
2022/10/22 01:34:40;;;;;;;66.05;21.65;;;11.70;99.90;;;;;;5041411;28;20071;-67
2022/10/22 01:37:06;;;;;;;53.05;20.27;;;11.70;99.90;;;;;;5041384;28;20412;-67
2022/10/22 01:39:35;;;;;;;54.22;21.30;;;11.70;99.90;;;;;;5048256;28;20123;-67
2022/10/22 01:42:01;;;;;;;59.53;22.30;;;11.70;99.90;;;;;;5054681;28;20066;-67
2022/10/22 01:44:31;;;;;;;59.97;21.05;;;11.70;99.90;;;;;;5060326;28;20052;-67
2022/10/22 01:47:25;;;;;;;56.00;21.52;;;11.80;99.90;;;;;;5046897;28;20404;-67
2022/10/22 01:49:51;;;;;;;59.60;21.05;;;11.80;99.90;;;;;;5048282;28;20045;-67
2022/10/22 01:52:51;;;;;;;73.05;22.33;;;11.80;99.90;;;;;;5036733;28;20071;-67
2022/10/22 01:55:48;;;;;;;53.20;20.67;;;11.80;99.90;;;;;;5049193;28;20496;-67
2022/10/22 01:58:36;;;;;;;53.03;21.00;;;11.90;99.90;;;;;;5045441;28;20480;-67
2022/10/22 02:01:22;;;;;;;71.07;24.30;;;11.80;99.90;;;;;;5040177;28;20041;-67
2022/10/22 02:04:12;;;;;;;55.22;22.85;;;11.90;99.90;;;;;;5042930;28;20045;-67
2022/10/22 02:06:40;;;;;;;63.83;22.42;;;11.80;99.90;;;;;;5045739;28;20056;-67
2022/10/22 02:09:07;;;;;;;68.80;21.67;;;11.80;99.90;;;;;;5083920;28;20041;-67
2022/10/22 02:11:33;;;;;;;65.95;21.98;;;11.80;99.90;;;;;;5049538;28;20429;-67
2022/10/22 02:14:01;;;;;;;79.40;23.88;;;11.80;99.90;;;;;;5049301;28;20126;-67
2022/10/22 02:16:32;;;;;;;64.35;22.00;;;11.80;99.90;;;;;;5048677;28;20040;-67
2022/10/22 02:19:03;;;;;;;62.15;21.17;;;11.70;99.90;;;;;;5050422;28;20102;-67
2022/10/22 02:21:29;;;;;;;62.38;22.10;;;11.70;99.90;;;;;;5048463;28;20043;-67
2022/10/22 02:23:55;;;;;;;61.83;22.20;;;11.60;99.90;;;;;;5046333;28;20065;-67
2022/10/22 02:26:42;;;;;;;66.10;20.55;;;11.60;99.90;;;;;;5045776;28;20041;-67
2022/10/22 02:29:20;;;;;;;58.53;21.15;;;11.60;99.90;;;;;;5051993;28;20041;-67
2022/10/22 02:31:47;;;;;;;59.90;20.77;;;11.60;99.90;;;;;;5049101;28;20063;-67
2022/10/22 02:34:18;;;;;;;63.60;22.02;;;11.50;99.90;;;;;;5033079;28;20045;-67
2022/10/22 02:36:45;;;;;;;56.55;22.42;;;11.50;99.90;;;;;;5042387;28;20088;-67
2022/10/22 02:39:13;;;;;;;55.15;20.88;;;11.50;99.90;;;;;;5049911;28;20037;-67
2022/10/22 02:41:39;;;;;;;58.85;21.45;;;11.40;99.90;;;;;;5046583;28;20488;-67
2022/10/22 02:44:08;;;;;;;71.50;22.58;;;11.50;99.90;;;;;;5050031;28;20060;-66
2022/10/22 02:46:35;;;;;;;62.35;23.05;;;11.50;99.90;;;;;;5048807;28;20037;-67
2022/10/22 02:49:00;;;;;;;70.63;25.25;;;11.40;99.90;;;;;;5045520;28;20043;-67
2022/10/22 02:51:26;;;;;;;65.57;23.17;;;11.40;99.90;;;;;;5044881;28;20419;-67
2022/10/22 02:53:51;;;;;;;56.40;22.45;;;11.50;99.90;;;;;;5042973;28;20041;-67
2022/10/22 02:56:17;;;;;;;65.85;22.77;;;11.40;99.90;;;;;;5044820;28;20045;-67
2022/10/22 02:58:42;;;;;;;84.85;24.92;;;11.50;99.90;;;;;;5040965;28;20068;-67
2022/10/22 03:01:08;;;;;;;66.60;22.55;;;11.40;99.90;;;;;;5044301;28;20288;-67
2022/10/22 03:03:34;;;;;;;65.80;22.83;;;11.50;99.90;;;;;;5044574;28;20055;-68
2022/10/22 03:05:59;;;;;;;61.05;22.88;;;11.40;99.90;;;;;;5036123;28;20048;-67
2022/10/22 03:08:25;;;;;;;66.53;23.58;;;11.40;99.90;;;;;;5047385;28;20526;-67
2022/10/22 03:10:51;;;;;;;62.17;23.08;;;11.40;99.90;;;;;;5044989;28;22018;-68
2022/10/22 03:13:16;;;;;;;64.07;22.63;;;11.50;99.90;;;;;;5046928;28;20044;-67
2022/10/22 03:15:42;;;;;;;64.38;22.95;;;11.50;99.90;;;;;;5045684;28;20049;-67
2022/10/22 03:18:08;;;;;;;70.28;22.92;;;11.40;99.90;;;;;;5045646;28;20618;-67
2022/10/22 03:20:33;;;;;;;67.55;23.52;;;11.40;99.90;;;;;;5043768;28;20073;-68
2022/10/22 03:23:01;;;;;;;61.78;23.02;;;11.40;99.90;;;;;;5047774;28;20134;-67
2022/10/22 03:25:27;;;;;;;70.63;23.92;;;11.30;99.90;;;;;;5043666;28;20095;-67
2022/10/22 03:27:54;;;;;;;67.72;22.50;;;11.30;99.90;;;;;;5037521;28;20037;-67
2022/10/22 03:30:20;;;;;;;64.70;23.42;;;11.40;99.90;;;;;;5042325;28;20049;-67
2022/10/22 03:32:45;;;;;;;63.03;23.77;;;11.40;99.90;;;;;;5043779;28;20068;-67
2022/10/22 03:35:11;;;;;;;67.97;22.23;;;11.30;99.90;;;;;;5044798;28;20099;-67
2022/10/22 03:37:38;;;;;;;68.70;25.05;;;11.40;99.90;;;;;;5047184;28;20480;-67
2022/10/22 03:40:06;;;;;;;69.55;23.98;;;11.30;99.90;;;;;;5049027;28;20481;-67
2022/10/22 03:42:32;;;;;;;64.35;23.35;;;11.40;99.90;;;;;;5044991;28;20044;-68
2022/10/22 03:44:57;;;;;;;65.57;22.55;;;11.40;99.90;;;;;;5040057;28;20131;-67
2022/10/22 03:47:23;;;;;;;72.03;24.27;;;11.40;99.90;;;;;;5046903;28;20047;-68
2022/10/22 03:49:50;;;;;;;66.63;22.70;;;11.30;99.90;;;;;;5047557;28;20403;-68
2022/10/22 03:52:15;;;;;;;67.10;23.92;;;11.30;99.90;;;;;;5047347;28;20476;-68
2022/10/22 03:54:41;;;;;;;65.60;22.63;;;11.30;99.90;;;;;;5016207;28;419165;-68
2022/10/22 03:57:08;;;;;;;67.43;23.20;;;11.40;99.90;;;;;;5041636;28;20155;-68
2022/10/22 03:59:40;;;;;;;63.03;23.17;;;11.30;99.90;;;;;;5042425;28;20096;-68
2022/10/22 04:02:05;;;;;;;69.60;23.90;;;11.30;99.90;;;;;;5043090;28;20150;-67
2022/10/22 04:04:31;;;;;;;68.75;24.98;;;11.30;99.90;;;;;;5047558;28;20579;-67
2022/10/22 04:06:57;;;;;;;85.25;25.02;;;11.30;99.90;;;;;;5031184;28;20140;-66
2022/10/22 04:09:23;;;;;;;78.15;23.95;;;11.20;99.90;;;;;;5039666;28;20040;-68
2022/10/22 04:11:48;;;;;;;69.32;23.05;;;11.30;99.90;;;;;;5038721;28;20082;-68
2022/10/22 04:14:14;;;;;;;70.97;24.17;;;11.30;99.90;;;;;;5047817;28;20041;-68
2022/10/22 04:16:40;;;;;;;85.00;26.27;;;11.30;99.90;;;;;;5044961;28;20395;-67
2022/10/22 04:19:06;;;;;;;81.75;26.17;;;11.30;99.90;;;;;;5047280;28;20049;-67
2022/10/22 04:21:32;;;;;;;85.88;24.88;;;11.30;99.90;;;;;;5042127;28;20498;-68
2022/10/22 04:23:58;;;;;;;79.93;25.63;;;11.30;99.90;;;;;;5035209;28;20124;-67
2022/10/22 04:26:24;;;;;;;77.00;25.77;;;11.30;99.90;;;;;;5033101;28;20538;-68
2022/10/22 04:28:50;;;;;;;72.43;25.50;;;11.30;99.90;;;;;;5045014;28;20048;-67
2022/10/22 04:31:22;;;;;;;72.07;25.48;;;11.30;99.90;;;;;;5037429;28;20079;-67
2022/10/22 04:33:56;;;;;;;68.93;25.17;;;11.30;99.90;;;;;;5042417;28;20049;-67
2022/10/22 04:36:21;;;;;;;78.68;26.58;;;11.40;99.90;;;;;;5048699;28;20063;-67
2022/10/22 04:38:52;;;;;;;75.13;25.52;;;11.40;99.90;;;;;;5046619;28;20060;-68
2022/10/22 04:41:22;;;;;;;87.63;28.00;;;11.40;99.90;;;;;;5041886;28;20116;-67
2022/10/22 04:43:48;;;;;;;81.57;25.75;;;11.40;99.90;;;;;;5046320;28;20388;-68
2022/10/22 04:46:16;;;;;;;75.30;25.92;;;11.50;99.90;;;;;;5046367;28;20045;-68
2022/10/22 04:48:42;;;;;;;86.03;25.65;;;11.50;99.90;;;;;;5045766;28;20496;-68
2022/10/22 04:51:11;;;;;;;85.93;27.45;;;11.50;99.90;;;;;;5047307;28;20530;-67
2022/10/22 04:53:39;;;;;;;94.60;27.63;;;11.50;99.90;;;;;;5040099;28;20057;-67
2022/10/22 04:56:19;;;;;;;85.35;26.45;;;11.50;99.90;;;;;;5050605;28;20059;-67
2022/10/22 04:58:45;;;;;;;87.75;27.27;;;11.60;99.90;;;;;;5050772;28;20045;-67
2022/10/22 05:01:15;;;;;;;82.88;27.27;;;11.60;99.90;;;;;;5042848;28;20037;-67
2022/10/22 05:03:41;;;;;;;77.38;25.98;;;11.60;99.90;;;;;;5048418;28;20052;-67
2022/10/22 05:06:07;;;;;;;83.63;27.17;;;11.60;99.90;;;;;;5049986;28;20045;-67
2022/10/22 05:08:33;;;;;;;82.18;27.52;;;11.70;99.90;;;;;;5048898;28;20455;-67
2022/10/22 05:10:58;;;;;;;87.35;27.02;;;11.70;99.90;;;;;;5049599;28;20045;-67
2022/10/22 05:13:24;;;;;;;72.97;25.27;;;11.70;99.90;;;;;;5051846;28;20044;-67
2022/10/22 05:15:49;;;;;;;86.60;26.70;;;11.70;99.90;;;;;;5041566;28;20190;-67
2022/10/22 05:18:15;;;;;;;81.93;26.80;;;11.70;99.90;;;;;;5048275;28;20051;-68
2022/10/22 05:20:41;;;;;;;96.53;28.27;;;11.80;99.90;;;;;;5047894;28;20041;-68
2022/10/22 05:23:07;;;;;;;86.55;26.02;;;11.80;99.90;;;;;;5051642;28;20091;-68
2022/10/22 05:25:37;;;;;;;78.63;25.60;;;11.70;99.90;;;;;;5048216;28;20045;-68
2022/10/22 05:28:03;;;;;;;79.72;26.05;;;11.80;99.90;;;;;;5046361;28;20685;-68
2022/10/22 05:30:28;;;;;;;81.60;26.45;;;11.80;99.90;;;;;;5043872;28;20098;-68
2022/10/22 05:32:54;;;;;;;76.45;25.60;;;11.70;99.90;;;;;;5042240;28;20117;-67
2022/10/22 05:35:19;;;;;;;84.65;25.27;;;11.80;99.90;;;;;;5027973;28;20450;-68
2022/10/22 05:37:45;;;;;;;94.07;26.73;;;11.80;99.90;;;;;;5047426;28;20055;-67
2022/10/22 05:40:11;;;;;;;86.50;25.33;;;11.80;99.90;;;;;;5047215;28;20032;-67
2022/10/22 05:42:36;;;;;;;65.63;23.20;;;11.70;99.90;;;;;;5043335;28;20087;-67
2022/10/22 05:45:02;;;;;;;81.88;24.88;;;11.80;99.90;;;;;;5038099;28;20032;-67
2022/10/22 05:47:29;;;;;;;68.70;23.48;;;11.80;99.90;;;;;;5046476;28;20503;-67
2022/10/22 05:49:56;;;;;;;65.28;21.70;;;11.80;99.90;;;;;;5047004;28;20128;-68
2022/10/22 05:52:22;;;;;;;72.93;23.42;;;11.80;99.90;;;;;;5048855;28;20406;-67
2022/10/22 05:54:48;;;;;;;80.20;22.73;;;11.80;99.90;;;;;;5048478;28;20471;-68
2022/10/22 05:57:13;;;;;;;77.47;22.17;;;11.80;99.90;;;;;;5048133;28;20072;-67
2022/10/22 05:59:39;;;;;;;67.03;22.23;;;11.80;99.90;;;;;;5049388;28;20041;-67
2022/10/22 06:02:05;;;;;;;64.05;22.35;;;11.80;99.90;;;;;;5050961;28;20060;-68
2022/10/22 06:04:30;;;;;;;62.97;22.30;;;11.80;99.90;;;;;;5043851;28;20517;-67
2022/10/22 06:06:56;;;;;;;67.32;22.00;;;11.90;99.90;;;;;;5047476;28;20380;-67
2022/10/22 06:09:34;;;;;;;65.72;22.40;;;11.80;99.90;;;;;;5031740;28;20144;-67
2022/10/22 06:12:00;;;;;;;73.63;23.58;;;11.90;99.90;;;;;;5047329;28;20037;-68
2022/10/22 06:14:26;;;;;;;70.38;22.77;;;12.00;99.90;;;;;;5049226;28;20044;-67
2022/10/22 06:16:52;;;;;;;68.95;22.13;;;12.00;99.90;;;;;;5081321;28;20056;-68
2022/10/22 06:19:21;;;;;;;78.47;22.90;;;12.00;99.90;;;;;;5039300;28;20045;-67
2022/10/22 06:21:47;;;;;;;70.53;21.25;;;12.00;99.90;;;;;;5043044;28;20095;-67
2022/10/22 06:24:12;;;;;;;73.43;22.50;;;12.00;99.90;;;;;;5047298;28;20072;-68
2022/10/22 06:26:39;;;;;;;67.72;21.90;;;12.00;99.90;;;;;;5040222;28;20061;-67
2022/10/22 06:29:05;;;;;;;66.07;20.60;;;12.10;99.90;;;;;;5048533;28;20073;-67
2022/10/22 06:31:36;;;;;;;70.75;20.92;;;12.00;99.90;;;;;;5048181;28;20072;-67
2022/10/22 06:34:07;;;;;;;66.60;21.63;;;12.10;99.90;;;;;;5034910;28;20088;-67
2022/10/22 06:36:33;;;;;;;75.57;20.67;;;12.00;99.90;;;;;;5046603;28;20376;-67
2022/10/22 06:38:59;;;;;;;65.20;20.55;;;12.20;99.90;;;;;;5046374;28;20507;-67
2022/10/22 06:41:25;;;;;;;67.53;21.67;;;12.10;99.90;;;;;;5041981;28;20036;-66
2022/10/22 06:43:52;;;;;;;63.42;20.08;;;12.10;99.90;;;;;;5050497;28;20036;-67
2022/10/22 06:46:20;;;;;;;63.85;19.65;;;12.10;99.90;;;;;;5046166;28;20079;-67
2022/10/22 06:48:50;;;;;;;63.72;19.73;;;12.20;99.90;;;;;;5049249;28;20036;-67
2022/10/22 06:51:16;;;;;;;64.00;19.60;;;12.30;99.90;;;;;;5042257;28;20506;-67
2022/10/22 06:53:42;;;;;;;55.53;19.33;;;12.30;99.90;;;;;;5043945;28;20045;-67
2022/10/22 06:56:10;;;;;;;58.90;20.25;;;12.30;99.90;;;;;;5042400;28;20045;-67
2022/10/22 06:58:36;;;;;;;59.95;18.60;;;12.40;99.90;;;;;;5037102;28;20528;-66
2022/10/22 07:01:09;;;;;;;61.45;19.15;;;12.40;99.90;;;;;;5041832;28;20127;-66
2022/10/22 07:03:34;;;;;;;70.55;19.20;;;12.40;99.90;;;;;;5045700;28;20057;-66
2022/10/22 07:06:01;;;;;;;60.90;19.60;;;12.50;99.90;;;;;;5045176;28;20120;-66
2022/10/22 07:08:28;;;;;;;55.70;17.85;;;12.50;99.90;;;;;;5044611;28;20037;-66
2022/10/22 07:10:54;;;;;;;65.85;19.20;;;12.70;99.90;;;;;;5042471;28;20060;-66
2022/10/22 07:13:19;;;;;;;60.65;18.48;;;12.70;99.90;;;;;;5048373;28;20036;-66
2022/10/22 07:15:50;;;;;;;56.30;17.33;;;12.70;99.90;;;;;;5043843;28;20055;-66
2022/10/22 07:18:16;;;;;;;59.92;18.13;;;12.70;99.90;;;;;;5045462;28;20048;-66
2022/10/22 07:20:41;;;;;;;60.20;17.27;;;12.70;99.90;;;;;;5047814;28;20442;-66
2022/10/22 07:23:07;;;;;;;65.18;16.98;;;12.80;99.90;;;;;;5044509;28;20052;-67
2022/10/22 07:25:32;;;;;;;54.50;16.50;;;12.80;99.90;;;;;;5046201;28;20033;-66
2022/10/22 07:27:58;;;;;;;52.53;16.95;;;12.80;99.90;;;;;;5031082;28;20036;-66
2022/10/22 07:30:23;;;;;;;52.95;16.50;;;12.80;99.90;;;;;;5047318;28;20128;-65
2022/10/22 07:32:49;;;;;;;59.83;16.27;;;12.80;99.90;;;;;;5046449;28;20486;-66
2022/10/22 07:35:15;;;;;;;55.65;16.60;;;12.80;99.90;;;;;;5042527;28;20048;-66
2022/10/22 07:37:40;;;;;;;42.28;14.52;;;12.80;99.90;;;;;;5065838;28;20044;-66
2022/10/22 07:40:06;;;;;;;58.92;16.95;;;12.90;99.90;;;;;;5040428;28;20118;-66
2022/10/22 07:42:32;;;;;;;50.67;14.73;;;12.80;99.90;;;;;;5039241;28;20587;-67
2022/10/22 07:44:58;;;;;;;53.22;16.92;;;12.90;99.90;;;;;;5036180;28;20068;-66
2022/10/22 07:47:23;;;;;;;47.70;15.80;;;12.90;99.90;;;;;;5036216;28;20586;-66
2022/10/22 07:49:49;;;;;;;59.60;17.42;;;13.00;99.90;;;;;;5039852;28;20033;-66
2022/10/22 07:52:14;;;;;;;53.25;15.52;;;13.00;99.90;;;;;;5034747;28;20033;-64
2022/10/22 07:54:40;;;;;;;55.55;16.17;;;13.00;99.90;;;;;;5036421;28;20507;-66
2022/10/22 07:57:05;;;;;;;51.50;15.48;;;13.10;99.90;;;;;;5052525;28;20037;-65
2022/10/22 07:59:31;;;;;;;58.88;15.13;;;13.10;99.90;;;;;;5037651;28;20561;-65
2022/10/22 08:01:56;;;;;;;55.92;15.70;;;13.30;99.90;;;;;;5037278;28;20041;-65
2022/10/22 08:04:22;;;;;;;55.85;15.75;;;13.30;99.90;;;;;;5036796;28;20069;-66
2022/10/22 08:06:48;;;;;;;52.10;15.68;;;13.40;99.90;;;;;;5033770;28;20037;-65
2022/10/22 08:09:13;;;;;;;48.65;14.77;;;13.40;99.90;;;;;;5038524;28;20128;-66
2022/10/22 08:11:39;;;;;;;51.85;14.98;;;13.60;99.90;;;;;;5031689;28;20499;-66
2022/10/22 08:14:04;;;;;;;48.95;14.88;;;13.50;99.90;;;;;;5035896;28;20099;-66
2022/10/22 08:16:30;;;;;;;50.58;14.02;;;13.40;99.90;;;;;;5046383;28;20033;-67
2022/10/22 08:18:56;;;;;;;48.58;14.35;;;13.50;99.90;;;;;;5039924;28;20049;-66
2022/10/22 08:21:21;;;;;;;51.40;13.93;;;13.60;99.90;;;;;;5048011;28;20037;-67
2022/10/22 08:23:47;;;;;;;47.65;13.52;;;13.60;99.90;;;;;;5040212;28;20053;-67
2022/10/22 08:26:12;;;;;;;50.05;15.32;;;13.60;99.90;;;;;;5047925;28;20045;-66
2022/10/22 08:28:38;;;;;;;61.50;14.80;;;13.70;99.90;;;;;;5042535;28;20515;-67
2022/10/22 08:31:06;;;;;;;55.50;14.48;;;13.80;99.90;;;;;;5049268;28;20484;-67
2022/10/22 08:33:32;;;;;;;57.20;15.10;;;13.80;99.90;;;;;;5048997;28;20033;-66
2022/10/22 08:35:58;;;;;;;42.10;13.32;;;13.80;99.90;;;;;;5055056;28;20106;-65
2022/10/22 08:38:24;;;;;;;55.95;14.20;;;13.90;99.90;;;;;;5068840;28;20033;-67
2022/10/22 08:40:59;;;;;;;50.88;14.18;;;13.90;99.90;;;;;;5033311;28;20102;-66
2022/10/22 08:43:40;;;;;;;52.88;14.07;;;13.90;99.90;;;;;;5035686;28;20033;-65
2022/10/22 08:46:17;;;;;;;53.55;14.07;;;14.10;99.90;;;;;;5041132;28;20048;-67
2022/10/22 08:48:49;;;;;;;50.95;13.88;;;14.10;99.90;;;;;;5041846;28;20396;-66
2022/10/22 08:51:21;;;;;;;55.78;13.20;;;14.30;99.90;;;;;;5046765;28;20041;-66
2022/10/22 08:54:27;;;;;;;46.20;12.82;;;14.20;99.90;;;;;;5041594;28;20045;-66
2022/10/22 08:57:19;;;;;;;47.75;13.15;;;14.30;99.90;;;;;;5035368;28;20049;-67
2022/10/22 09:00:02;;;;;;;45.42;12.55;;;14.40;99.90;;;;;;5036024;28;20436;-66
2022/10/22 09:02:43;;;;;;;48.13;12.55;;;14.60;99.90;;;;;;5034636;28;20060;-66
2022/10/22 09:05:30;;;;;;;43.70;12.63;;;14.60;99.90;;;;;;5057159;28;20055;-67
2022/10/22 09:07:56;;;;;;;42.10;12.00;;;14.60;99.90;;;;;;5040740;28;20029;-67
2022/10/22 09:10:28;;;;;;;48.33;12.55;;;14.70;99.90;;;;;;5043953;28;20094;-67
2022/10/22 09:12:53;;;;;;;41.20;11.20;;;14.90;99.90;;;;;;5036566;28;20040;-67
2022/10/22 09:15:19;;;;;;;35.75;11.75;;;14.80;99.90;;;;;;5038318;28;20040;-67
2022/10/22 09:18:36;;;;;;;48.20;11.38;;;14.90;99.90;;;;;;5042214;28;20064;-67
2022/10/22 09:21:15;;;;;;;43.40;10.98;;;14.90;99.90;;;;;;5012339;28;20060;-67
2022/10/22 09:24:03;;;;;;;39.22;11.27;;;14.90;99.90;;;;;;5033278;28;20038;-66
2022/10/22 09:26:33;;;;;;;40.88;11.57;;;15.10;99.90;;;;;;5068935;28;20120;-66
2022/10/22 09:29:00;;;;;;;35.47;10.32;;;15.10;99.90;;;;;;5034573;28;20048;-66
2022/10/22 09:31:28;;;;;;;48.42;11.40;;;15.10;99.90;;;;;;5027973;28;20038;-67
2022/10/22 09:33:58;;;;;;;46.20;10.88;;;15.00;99.90;;;;;;5036486;28;20069;-67
2022/10/22 09:36:27;;;;;;;50.53;11.57;;;15.10;99.90;;;;;;5036527;28;20408;-66
2022/10/22 09:38:52;;;;;;;50.70;12.15;;;15.00;99.90;;;;;;5037643;28;20041;-67
2022/10/22 09:41:22;;;;;;;42.45;10.82;;;15.10;99.90;;;;;;5036600;28;20037;-66
2022/10/22 09:43:48;;;;;;;47.38;12.75;;;15.10;99.90;;;;;;5037937;28;20045;-66
2022/10/22 09:46:20;;;;;;;47.42;12.77;;;15.00;99.90;;;;;;5030850;28;20049;-67
2022/10/22 09:48:50;;;;;;;59.60;13.82;;;15.10;99.90;;;;;;5038967;28;20042;-67
2022/10/22 09:51:20;;;;;;;46.33;13.27;;;15.10;99.90;;;;;;5037558;28;20045;-67
2022/10/22 09:53:54;;;;;;;52.08;13.15;;;15.10;99.90;;;;;;5038154;28;20130;-66
2022/10/22 09:56:42;;;;;;;46.65;12.50;;;15.20;99.90;;;;;;5035266;28;20052;-68
2022/10/22 09:59:22;;;;;;;33.53;12.02;;;15.10;99.90;;;;;;5040138;28;20659;-67
2022/10/22 10:01:56;;;;;;;42.25;12.35;;;15.30;99.90;;;;;;5073201;28;20083;-67
2022/10/22 10:04:22;;;;;;;45.00;12.50;;;15.40;99.90;;;;;;5064341;28;20559;-67
2022/10/22 10:06:54;;;;;;;50.00;13.70;;;15.40;99.90;;;;;;5072218;28;20045;-68
2022/10/22 10:09:25;;;;;;;50.70;13.10;;;15.50;99.90;;;;;;5033678;28;20040;-67
2022/10/22 10:12:11;;;;;;;44.17;12.80;;;15.50;99.90;;;;;;5035300;28;20048;-68
2022/10/22 10:15:03;;;;;;;42.95;14.40;;;15.50;99.90;;;;;;5068397;28;20044;-67
2022/10/22 10:17:39;;;;;;;50.72;16.05;;;15.50;99.90;;;;;;5040108;28;20110;-67
2022/10/22 10:20:14;;;;;;;45.92;15.45;;;15.50;99.90;;;;;;5039346;28;20492;-67
2022/10/22 10:22:59;;;;;;;47.67;15.88;;;15.50;99.90;;;;;;5068062;28;20078;-68
2022/10/22 10:25:32;;;;;;;51.92;16.08;;;15.50;99.90;;;;;;5039286;28;20060;-68
2022/10/22 10:28:32;;;;;;;54.88;16.50;;;15.40;99.90;;;;;;5044840;28;20056;-67
2022/10/22 10:31:00;;;;;;;56.83;16.55;;;15.50;99.90;;;;;;5037661;28;20045;-67
2022/10/22 10:33:51;;;;;;;47.58;17.00;;;15.50;99.90;;;;;;5067516;28;20463;-67
2022/10/22 10:36:32;;;;;;;50.30;16.42;;;15.40;99.90;;;;;;5036377;28;20052;-67
2022/10/22 10:39:22;;;;;;;61.83;18.35;;;15.40;99.90;;;;;;5034838;28;20466;-67
2022/10/22 10:42:21;;;;;;;58.92;18.20;;;15.30;99.90;;;;;;5039001;28;20274;-67
2022/10/22 10:45:02;;;;;;;59.17;18.77;;;15.30;99.90;;;;;;5049968;28;20052;-67
2022/10/22 10:47:54;;;;;;;66.35;19.50;;;15.40;99.90;;;;;;5038787;28;20041;-66
2022/10/22 10:50:46;;;;;;;63.53;20.60;;;15.40;99.90;;;;;;5029034;28;20045;-67
2022/10/22 10:53:37;;;;;;;57.60;18.10;;;15.40;99.90;;;;;;5033609;28;20419;-67
2022/10/22 10:56:37;;;;;;;42.88;17.30;;;15.50;99.90;;;;;;5033968;28;20103;-67
2022/10/22 10:59:31;;;;;;;54.80;17.38;;;15.60;99.90;;;;;;5042450;28;20043;-65
2022/10/22 11:02:18;;;;;;;57.80;17.60;;;15.50;99.90;;;;;;5038792;28;20065;-67
2022/10/22 11:05:03;;;;;;;54.80;16.73;;;15.70;99.90;;;;;;5013526;28;20132;-68
2022/10/22 11:08:02;;;;;;;53.35;18.00;;;15.70;99.90;;;;;;5032037;28;20103;-65
2022/10/22 11:10:51;;;;;;;55.80;16.77;;;15.80;99.90;;;;;;5034921;28;20661;-67
2022/10/22 11:13:39;;;;;;;54.50;17.58;;;15.80;99.90;;;;;;5040851;28;20544;-66
2022/10/22 11:16:17;;;;;;;50.33;16.83;;;15.80;99.90;;;;;;5043042;28;20249;-68
2022/10/22 11:19:11;;;;;;;58.33;17.75;;;15.90;99.90;;;;;;5043347;28;20488;-67
2022/10/22 11:21:40;;;;;;;58.08;17.63;;;16.00;99.90;;;;;;5039899;28;20049;-66
2022/10/22 11:24:33;;;;;;;54.80;16.92;;;16.00;99.90;;;;;;5039557;28;20052;-67
2022/10/22 11:27:56;;;;;;;52.25;16.70;;;16.20;99.90;;;;;;5043987;28;20055;-67
2022/10/22 11:30:24;;;;;;;40.92;15.50;;;16.30;99.90;;;;;;4989019;28;20042;-68
2022/10/22 11:32:56;;;;;;;50.53;16.80;;;16.40;99.90;;;;;;4987258;28;20042;-68
2022/10/22 11:35:38;;;;;;;55.88;16.38;;;16.40;99.90;;;;;;5012209;28;20145;-67
2022/10/22 11:38:06;;;;;;;52.47;15.52;;;16.30;99.90;;;;;;5039204;28;20052;-67
2022/10/22 11:40:41;;;;;;;45.17;15.23;;;16.30;99.90;;;;;;5039108;28;20086;-66
2022/10/22 11:43:09;;;;;;;42.55;14.65;;;16.30;99.90;;;;;;5035987;28;20475;-68
2022/10/22 11:45:41;;;;;;;47.80;15.52;;;16.40;99.90;;;;;;5021137;28;20045;-67
2022/10/22 11:48:09;;;;;;;49.50;15.50;;;16.40;99.90;;;;;;5043418;28;20045;-67
2022/10/22 11:50:53;;;;;;;47.20;15.40;;;16.40;99.90;;;;;;5043704;28;20044;-67
2022/10/22 11:53:26;;;;;;;52.55;15.02;;;16.50;99.90;;;;;;5038838;28;20103;-67
2022/10/22 11:55:54;;;;;;;47.80;16.65;;;16.40;99.90;;;;;;5044817;28;20037;-68
2022/10/22 11:58:43;;;;;;;43.85;14.70;;;16.30;99.90;;;;;;5040856;28;20065;-67
2022/10/22 12:01:09;;;;;;;50.10;14.60;;;16.20;99.90;;;;;;5043359;28;20033;-69
2022/10/22 12:03:42;;;;;;;46.20;14.85;;;16.10;99.90;;;;;;5045549;28;20037;-67
2022/10/22 12:06:10;;;;;;;36.67;14.35;;;16.00;99.90;;;;;;5044571;28;20080;-68
2022/10/22 12:08:53;;;;;;;53.13;15.13;;;16.00;99.90;;;;;;5076145;28;20127;-67
2022/10/22 12:11:46;;;;;;;42.80;14.57;;;15.90;99.90;;;;;;5046736;28;20518;-68
2022/10/22 12:14:26;;;;;;;36.90;13.13;;;15.90;99.90;;;;;;5061714;28;20049;-65
2022/10/22 12:17:16;;;;;;;42.92;14.02;;;15.90;99.90;;;;;;5019018;28;20029;-67
2022/10/22 12:20:01;;;;;;;41.47;14.45;;;16.00;99.90;;;;;;5076813;28;20088;-67
2022/10/22 12:22:31;;;;;;;49.75;13.98;;;15.90;99.90;;;;;;5076395;28;20028;-68
2022/10/22 12:25:01;;;;;;;41.03;13.82;;;16.00;99.90;;;;;;5044577;28;20037;-68
2022/10/22 12:27:38;;;;;;;35.63;13.90;;;16.00;99.90;;;;;;5059854;28;20037;-68
2022/10/22 12:30:20;;;;;;;45.50;14.20;;;16.00;99.90;;;;;;5042380;28;20098;-69
2022/10/22 12:32:46;;;;;;;37.72;13.57;;;16.20;99.90;;;;;;5041334;28;20061;-69
2022/10/22 12:35:18;;;;;;;45.28;13.63;;;16.20;99.90;;;;;;5071067;28;20084;-67
2022/10/22 12:37:44;;;;;;;34.28;13.32;;;16.20;99.90;;;;;;5050338;28;20048;-67
2022/10/22 12:40:28;;;;;;;34.17;12.70;;;16.30;99.90;;;;;;5035786;28;20043;-68
2022/10/22 12:42:59;;;;;;;41.60;12.10;;;16.30;99.90;;;;;;5074699;28;20403;-64
2022/10/22 12:45:30;;;;;;;46.20;13.18;;;16.30;99.90;;;;;;5037574;28;20057;-68
2022/10/22 12:48:05;;;;;;;39.38;12.10;;;16.40;99.90;;;;;;5070540;28;20044;-66